Terminal Aerodrome Forecast
Issued by NWS Los Angeles, CA

Home | Current Version | Previous Version | Text Only | Print | Product List | Glossary On
Versions: 1 2 3 4 5 6 7 8 9 10 11 12 13 14 15 16 17 18 19 20
000
FTUS46 KLOX 241736
TAFSMX
TAF
KSMX 241736Z 2418/2518 31009KT P6SM BKN022
     FM242000 31012KT P6SM BKN025
     FM242200 31016KT P6SM SCT030
     FM250200 30012KT P6SM SCT030
     FM250700 29003KT P6SM OVC015
     FM251200 VRB03KT 5SM BR BKN007 OVC012=

USA.gov is the U.S. government's official web portal to all federal, state and local government web resources and services.